KCXO/CXO METAR and TAF weather

Enter ICAO airport designator
Station Type Date Time Source
KCXO METAR 2022/06/27 17:53 UTC NOAA

KCXO 271753Z 10SM CLR 36/21 A3008 RMK AO2 SLP182 T03560211 10367 20233 58011


Station Type Date Time Source
KCXO Decoded METAR 2022/06/27 17:53 UTC NOAA

LONE STAR EXECUTIVE AIRPORT, TX, United States (KCXO) 30-21N 95-25W 75M
Jun 27, 2022 - 01:53 PM EDT / 2022.06.27 1753 UTC
Visibility: 10 mile(s):0
Sky conditions: clear
Temperature: 96.1 F (35.6 C)
Heat index: 102.9 F (39.4 C):1
Dew Point: 70.0 F (21.1 C)
Relative Humidity: 43%
Pressure (altimeter): 30.08 in. Hg (1018 hPa)
Pressure tendency: 0.03 inches (1.1 hPa) lower than three hours ago
ob: KCXO 271753Z 10SM CLR 36/21 A3008 RMK AO2 SLP182 T03560211 10367 20233 58011
cycle: 18

Station Type Date Time Source
KCXO TAF 2022/06/27 18:24 UTC NOAA

TAF KCXO 271722Z 2718/2818 02006KT P6SM FEW070
FM272100 05007KT P6SM VCTS SCT045CB BKN200
FM280100 VRB03KT P6SM SCT050 BKN250
FM281500 02007KT P6SM SCT035

Example: see airport list